Terminal Aerodrome Forecast
Issued by NWS Louisville, KY

Home | Current Version | Previous Version | Text Only | Print | Product List | Glossary On
Versions: 1 2 3 4 5 6 7 8 9 10 11 12 13 14
000
FTUS43 KLMK 282327
TAFBWG
TAF
KBWG 282327Z 2900/2924 14005KT P6SM FEW060
     FM290200 VRB03KT P6SM FEW250
     FM291000 VRB03KT 6SM BR SCT250
     FM291400 19010KT P6SM SCT060 SCT250=

USA.gov is the U.S. government's official web portal to all federal, state and local government web resources and services.